Flight Track Log - Related Links

Times and Time Zones

All times are in EDT time to prevent confusion due to time zone crossing. See the EJA396 flight status page for this flight to view local times or setup timezone preferences in your user account.

Time Position Orientation Groundspeed Altitude Reporting Facility
EDT Latitude Longitude Course Direction KTS MPH feet Rate Location/Type
Thu 09:37:31 AM 42.4000 -70.9833 25° Northeast 170 196 2,800  Level KA90
Thu 09:38:32 AM 42.4500 -70.9500 26° Northeast 251 289 5,100 3,273 Climbing KA90
Thu 09:39:32 AM 42.4333 -70.8667 105° East 244 281 9,400 4,000 Climbing KA90
Thu 09:39:56 AM 42.4058 -70.8431 148° Southeast 268 308 10,700 2,786 Climbing Boston Center
Thu 09:40:56 AM 42.3608 -70.7628 127° Southeast 308 354 13,300 1,650 Climbing Boston Center
Thu 09:41:56 AM 42.2728 -70.7258 163° South 308 354 14,000 900 Climbing Boston Center
Thu 09:42:56 AM 42.1686 -70.7314 182° South 327 376 15,100 2,050 Climbing Boston Center
Thu 09:43:56 AM 42.0583 -70.7372 182° South 365 420 18,100 2,800 Climbing Boston Center
Thu 09:44:56 AM 41.9564 -70.7428 182° South 392 451 20,700 2,550 Climbing Boston Center
Thu 09:45:56 AM 41.8294 -70.7628 187° South 415 478 23,200 2,400 Climbing Boston Center
Thu 09:46:56 AM 41.7281 -70.8239 204° Southwest 427 491 25,500 2,200 Climbing Boston Center
Thu 09:47:56 AM 41.6128 -70.9186 212° Southwest 437 503 27,600 2,000 Climbing Boston Center
Thu 09:48:56 AM 41.5142 -71.0261 219° Southwest 453 521 29,500 1,700 Climbing Boston Center
Thu 09:49:56 AM 41.4303 -71.1583 230° Southwest 458 527 31,000 1,500 Climbing Boston Center
Thu 09:50:56 AM 41.3464 -71.2953 231° Southwest 470 541 32,500 1,350 Climbing Boston Center
Thu 09:51:56 AM 41.2786 -71.4069 231° Southwest 482 555 33,700 1,350 Climbing Boston Center
Thu 09:52:56 AM 41.1944 -71.5408 230° Southwest 482 555 35,200 1,455 Climbing Boston Center
Thu 09:54:08 AM 41.1225 -71.7017 239° Southwest 475 547 36,900 1,591 Climbing Boston Center
Thu 09:55:08 AM 41.0631 -71.8839 247° West 464 534 38,700 1,500 Climbing Boston Center
Thu 09:56:08 AM 41.0075 -72.0550 247° West 464 534 39,900 650 Climbing Boston Center
Thu 09:57:08 AM 40.9558 -72.2064 246° West 459 528 40,000 50 Climbing Boston Center
Thu 09:58:08 AM 40.8853 -72.3550 238° Southwest 466 536 40,000  Level Boston Center
Thu 09:59:08 AM 40.7853 -72.4731 222° Southwest 474 545 40,000  Level Boston Center
Thu 10:00:08 AM 40.6831 -72.5825 219° Southwest 474 545 40,000  Level Boston Center
Thu 10:01:08 AM 40.5850 -72.6997 222° Southwest 479 551 40,000  Level Boston Center
Thu 10:02:08 AM 40.4825 -72.8139 220° Southwest 484 557 40,000  Level Boston Center
Thu 10:03:08 AM 40.3864 -72.9306 223° Southwest 484 557 40,000  Level Boston Center
Thu 10:04:08 AM 40.2878 -73.0439 221° Southwest 484 557 40,000  Level Boston Center
Thu 10:05:08 AM 40.1872 -73.1597 221° Southwest 479 551 40,000  Level Boston Center
Thu 10:05:46 AM 40.1236 -73.2283 220° Southwest 481 554 40,000  Level Washington Center
Thu 10:06:46 AM 40.0236 -73.3428 221° Southwest 486 559 40,000  Level Washington Center
Thu 10:07:46 AM 39.9233 -73.4489 219° Southwest 480 552 40,000  Level Washington Center
Thu 10:08:47 AM 39.8233 -73.5600 220° Southwest 474 545 40,000  Level Washington Center
Thu 10:09:45 AM 39.7250 -73.6706 221° Southwest 474 545 40,000  Level Washington Center
Thu 10:10:47 AM 39.6269 -73.7811 221° Southwest 474 545 40,000  Level Washington Center
Thu 10:11:48 AM 39.5244 -73.8939 220° Southwest 479 551 40,000  Level Washington Center
Thu 10:12:48 AM 39.4236 -74.0064 221° Southwest 484 557 40,000  Level Washington Center
Thu 10:13:48 AM 39.3208 -74.1161 220° Southwest 479 551 40,000  Level Washington Center
Thu 10:14:46 AM 39.2222 -74.2253 221° Southwest 479 551 40,000  Level Washington Center
Thu 10:15:46 AM 39.1192 -74.3342 219° Southwest 479 551 40,000  Level Washington Center
Thu 10:16:47 AM 39.0203 -74.4456 221° Southwest 479 551 40,000  Level Washington Center
Thu 10:17:47 AM 38.9294 -74.5456 221° Southwest 479 551 40,000  Level Washington Center
Thu 10:18:48 AM 38.8283 -74.6483 218° Southwest 479 551 40,000  Level Washington Center
Thu 10:19:48 AM 38.7289 -74.7586 221° Southwest 479 551 40,000  Level Washington Center
Thu 10:20:46 AM 38.6253 -74.8661 219° Southwest 479 551 40,000  Level Washington Center
Thu 10:21:46 AM 38.5258 -74.9761 221° Southwest 479 551 40,000  Level Washington Center
Thu 10:22:47 AM 38.4222 -75.0828 219° Southwest 479 551 40,000  Level Washington Center
Thu 10:23:47 AM 38.3206 -75.1869 219° Southwest 479 551 40,000  Level Washington Center
Thu 10:24:48 AM 38.2250 -75.3011 223° Southwest 479 551 40,000  Level Washington Center
Thu 10:25:48 AM 38.1208 -75.4044 218° Southwest 479 551 40,000  Level Washington Center
Thu 10:26:45 AM 38.0147 -75.5047 217° Southwest 479 551 40,000  Level Washington Center
Thu 10:27:46 AM 37.9000 -75.5892 210° Southwest 479 551 40,000  Level Washington Center
Thu 10:28:46 AM 37.7872 -75.6733 211° Southwest 479 551 40,000  Level Washington Center
Thu 10:29:47 AM 37.6767 -75.7572 211° Southwest 479 551 40,000  Level Washington Center
Thu 10:30:47 AM 37.5661 -75.8408 211° Southwest 474 545 40,000  Level Washington Center
Thu 10:31:48 AM 37.4511 -75.9083 205° Southwest 463 533 40,000  Level Washington Center
Thu 10:32:46 AM 37.3342 -75.9706 203° Southwest 458 527 40,000  Level Washington Center
Thu 10:33:46 AM 37.2192 -76.0325 203° Southwest 458 527 40,000  Level Washington Center
Thu 10:34:47 AM 37.1022 -76.0944 203° Southwest 458 527 40,000  Level Washington Center
Thu 10:35:47 AM 36.9683 -76.1586 201° Southwest 458 527 40,000  Level Washington Center
Thu 10:36:48 AM 36.8553 -76.2331 208° Southwest 463 533 40,000  Level Washington Center
Thu 10:37:48 AM 36.7547 -76.3256 216° Southwest 457 526 40,000  Level Washington Center
Thu 10:38:46 AM 36.6622 -76.4103 216° Southwest 457 526 40,000  Level Washington Center
Thu 10:39:46 AM 36.5614 -76.5022 216° Southwest 462 532 40,000  Level Washington Center
Thu 10:40:47 AM 36.4606 -76.5939 216° Southwest 456 525 40,000  Level Washington Center
Thu 10:41:48 AM 36.3597 -76.6831 215° Southwest 456 525 40,000  Level Washington Center
Thu 10:42:46 AM 36.2608 -76.7717 216° Southwest 456 525 40,000  Level Washington Center
Thu 10:43:47 AM 36.1597 -76.8603 215° Southwest 456 525 40,000  Level Washington Center
Thu 10:44:47 AM 36.0567 -76.9511 215° Southwest 456 525 40,000  Level Washington Center
Thu 10:45:46 AM 35.9575 -77.0392 216° Southwest 456 525 40,000  Level Washington Center
Thu 10:46:47 AM 35.8561 -77.1272 215° Southwest 456 525 40,000  Level Washington Center
Thu 10:47:47 AM 35.7611 -77.2147 217° Southwest 445 512 40,000  Level Washington Center
Thu 10:48:48 AM 35.6619 -77.3050 216° Southwest 445 512 40,000  Level Washington Center
Thu 10:49:46 AM 35.5583 -77.3944 215° Southwest 455 524 40,000  Level Washington Center
Thu 10:50:46 AM 35.4589 -77.4817 216° Southwest 455 524 40,000  Level Washington Center
Thu 10:51:47 AM 35.3553 -77.5733 216° Southwest 455 524 40,000  Level Washington Center
Thu 10:52:48 AM 35.2617 -77.6703 220° Southwest 449 517 40,000  Level Washington Center
Thu 10:53:48 AM 35.1661 -77.7694 220° Southwest 449 517 40,000  Level Washington Center
Thu 10:54:46 AM 35.0725 -77.8658 220° Southwest 449 517 40,000  Level Washington Center
Thu 10:55:46 AM 34.9786 -77.9647 221° Southwest 449 517 40,000  Level Washington Center
Thu 10:56:47 AM 34.8828 -78.0656 221° Southwest 449 517 40,000  Level Washington Center
Thu 10:58:44 AM 34.7022 -78.2511 220° Southwest 430 495 40,000  Level Jacksonville Center
Thu 10:59:44 AM 34.6117 -78.3444 220° Southwest 430 495 40,000  Level Jacksonville Center
Thu 11:00:44 AM 34.5067 -78.4406 217° Southwest 441 507 40,000  Level Jacksonville Center
Thu 11:01:44 AM 34.4164 -78.5408 223° Southwest 441 507 40,000  Level Jacksonville Center
Thu 11:02:44 AM 34.3258 -78.6333 220° Southwest 441 507 40,000  Level Jacksonville Center
Thu 11:03:44 AM 34.2328 -78.7258 219° Southwest 441 507 40,000  Level Jacksonville Center
Thu 11:04:44 AM 34.1419 -78.8156 219° Southwest 441 507 40,000  Level Jacksonville Center
Thu 11:05:44 AM 34.0492 -78.9125 221° Southwest 446 513 40,000  Level Jacksonville Center
Thu 11:06:44 AM 33.9539 -79.0019 218° Southwest 441 507 40,000  Level Jacksonville Center
Thu 11:07:44 AM 33.8625 -79.0911 219° Southwest 441 507 40,000  Level Jacksonville Center
Thu 11:08:44 AM 33.7694 -79.1850 220° Southwest 441 507 40,000  Level Jacksonville Center
Thu 11:09:44 AM 33.6822 -79.2711 219° Southwest 435 501 40,000  Level Jacksonville Center
Thu 11:10:44 AM 33.5908 -79.3597 219° Southwest 425 489 40,000  Level Jacksonville Center
Thu 11:11:44 AM 33.4994 -79.4503 220° Southwest 425 489 40,000  Level Jacksonville Center
Thu 11:12:44 AM 33.4039 -79.5411 218° Southwest 438 504 40,000  Level Jacksonville Center
Thu 11:13:44 AM 33.3103 -79.6342 220° Southwest 438 504 40,000  Level Jacksonville Center
Thu 11:14:44 AM 33.2164 -79.7244 219° Southwest 444 511 40,000  Level Jacksonville Center
Thu 11:15:44 AM 33.1206 -79.8147 218° Southwest 444 511 40,000  Level Jacksonville Center
Thu 11:16:44 AM 33.0289 -79.9044 219° Southwest 439 505 40,000  Level Jacksonville Center
Thu 11:17:44 AM 32.9350 -79.9967 220° Southwest 439 505 40,000  Level Jacksonville Center
Thu 11:18:44 AM 32.8469 -80.0714 215° Southwest 444 511 40,000  Level Jacksonville Center
Thu 11:19:44 AM 32.7422 -80.1486 212° Southwest 444 511 40,000  Level Jacksonville Center
Thu 11:20:44 AM 32.6436 -80.2256 213° Southwest 438 504 40,000  Level Jacksonville Center
Thu 11:21:44 AM 32.5386 -80.3003 211° Southwest 438 504 40,000  Level Jacksonville Center
Thu 11:22:44 AM 32.4381 -80.3744 212° Southwest 438 504 40,000  Level Jacksonville Center
Thu 11:23:44 AM 32.3350 -80.4486 211° Southwest 432 497 40,000  Level Jacksonville Center
Thu 11:24:44 AM 32.2447 -80.5369 220° Southwest 432 497 40,000  Level Jacksonville Center
Thu 11:25:44 AM 32.1906 -80.6586 242° Southwest 416 479 40,000  Level Jacksonville Center
Thu 11:26:44 AM 32.1367 -80.7900 244° Southwest 411 473 40,000  Level Jacksonville Center
Thu 11:27:44 AM 32.0758 -80.9067 238° Southwest 417 480 40,000  Level Jacksonville Center
Thu 11:28:44 AM 31.9828 -80.9700 210° Southwest 417 480 40,000  Level Jacksonville Center
Thu 11:29:44 AM 31.8494 -80.9897 187° South 411 473 40,000  Level Jacksonville Center
Thu 11:30:44 AM 31.7308 -81.0069 187° South 427 491 40,000  Level Jacksonville Center
Thu 11:31:44 AM 31.6244 -81.0211 186° South 434 499 40,000  Level Jacksonville Center
Thu 11:32:44 AM 31.4953 -81.0383 186° South 428 493 40,000  Level Jacksonville Center
Thu 11:33:44 AM 31.3911 -81.0503 186° South 422 486 40,000  Level Jacksonville Center
Thu 11:34:44 AM 31.2703 -81.0719 189° South 429 494 40,000  Level Jacksonville Center
Thu 11:35:44 AM 31.1536 -81.0889 187° South 429 494 40,000  Level Jacksonville Center
Thu 11:36:44 AM 31.0347 -81.1033 186° South 429 494 40,000  Level Jacksonville Center
Thu 11:37:44 AM 30.9139 -81.1178 186° South 429 494 40,000  Level Jacksonville Center
Thu 11:38:44 AM 30.7972 -81.1319 186° South 429 494 40,000  Level Jacksonville Center
Thu 11:39:44 AM 30.6783 -81.1486 187° South 429 494 40,000  Level Jacksonville Center
Thu 11:40:44 AM 30.5614 -81.1508 181° South 424 488 40,000  Level Jacksonville Center
Thu 11:41:44 AM 30.4425 -81.1481 179° South 424 488 40,000  Level Jacksonville Center
Thu 11:42:44 AM 30.3275 -81.1453 179° South 419 482 40,000  Level Jacksonville Center
Thu 11:43:44 AM 30.2106 -81.1403 178° South 419 482 40,000  Level Jacksonville Center
Thu 11:44:44 AM 30.0936 -81.1400 180° South 424 488 40,000  Level Jacksonville Center
Thu 11:45:44 AM 29.9767 -81.1350 178° South 419 482 40,000  Level Jacksonville Center
Thu 11:46:44 AM 29.8578 -81.1300 178° South 419 482 40,000  Level Jacksonville Center
Thu 11:47:44 AM 29.7408 -81.1272 179° South 419 482 40,000  Level Jacksonville Center
Thu 11:48:44 AM 29.6258 -81.1244 179° South 419 482 40,000  Level Jacksonville Center
Thu 11:49:44 AM 29.5086 -81.0956 168° South 419 482 40,000  Level Jacksonville Center
Thu 11:50:44 AM 29.4075 -81.0261 149° Southeast 413 475 40,000  Level Jacksonville Center
Thu 11:51:44 AM 29.3103 -80.9444 144° Southeast 426 490 40,000  Level Jacksonville Center
Thu 11:52:44 AM 29.2086 -80.8586 144° Southeast 438 504 40,000  Level Jacksonville Center
Thu 11:53:09 AM 29.1514 -80.8197 149° Southeast 441 507 40,000  Level Miami Center
Thu 11:54:09 AM 29.0494 -80.7378 145° Southeast 453 521 40,000  Level Miami Center
Thu 11:55:09 AM 28.9475 -80.6536 144° Southeast 459 528 40,000  Level Miami Center
Thu 11:56:09 AM 28.8453 -80.5694 144° Southeast 459 528 40,000  Level Miami Center
Thu 11:57:09 AM 28.7411 -80.4856 145° Southeast 459 528 40,000  Level Miami Center
Thu 11:58:09 AM 28.6492 -80.4044 142° Southeast 464 534 40,000  Level Miami Center
Thu 11:59:09 AM 28.5556 -80.3069 138° Southeast 459 528 40,000  Level Miami Center
Thu 12:00:09 PM 28.4517 -80.1975 137° Southeast 464 534 40,000 -50 Level Miami Center
Thu 12:01:09 PM 28.3514 -80.1097 142° Southeast 464 534 39,900 -700 Descending Miami Center
Thu 12:02:09 PM 28.2419 -80.0617 159° South 435 501 38,600 -1,400 Descending Miami Center
Thu 12:03:09 PM 28.1467 -80.0308 164° South 412 474 37,100 -1,450 Descending Miami Center
Thu 12:04:09 PM 28.0431 -79.9997 165° South 397 457 35,700 -1,650 Descending Miami Center
Thu 12:05:09 PM 27.9289 -79.9661 165° South 387 445 33,800 -1,650 Descending Miami Center
Thu 12:06:09 PM 27.8314 -79.9375 165° South 393 452 32,400 -1,550 Descending Miami Center
Thu 12:07:09 PM 27.7278 -79.9067 165° South 393 452 30,700 -1,700 Descending Miami Center
Thu 12:08:09 PM 27.6303 -79.8736 163° South 368 423 29,000 -1,550 Descending Miami Center
Thu 12:09:09 PM 27.5347 -79.8428 164° South 363 418 27,600 -1,650 Descending Miami Center
Thu 12:10:09 PM 27.4247 -79.8119 166° South 368 423 25,700 -1,700 Descending Miami Center
Thu 12:11:09 PM 27.3272 -79.7814 164° South 368 423 24,200 -1,900 Descending Miami Center
Thu 12:12:09 PM 27.2442 -79.7558 165° South 358 412 21,900 -2,200 Descending Miami Center
Thu 12:13:09 PM 27.1531 -79.7281 165° South 348 400 19,800 -2,150 Descending Miami Center
Thu 12:14:09 PM 27.0617 -79.7000 165° South 326 375 17,600 -2,100 Descending Miami Center
Thu 12:15:09 PM 26.9764 -79.6747 165° South 318 366 15,600 -1,300 Descending Miami Center
Thu 12:16:09 PM 26.8975 -79.6542 167° South 303 349 15,000 -500 Descending Miami Center
Thu 12:17:09 PM 26.8244 -79.6569 182° South 291 335 14,600 -1,300 Descending Miami Center
Thu 12:18:09 PM 26.7644 -79.7278 227° Southwest 260 299 12,400 -1,300 Descending Miami Center
Thu 12:19:09 PM 26.7294 -79.8036 243° Southwest 253 291 12,000 -200 Descending Miami Center
Thu 12:20:09 PM 26.6742 -79.8511 218° Southwest 274 315 12,000 -300 Level Miami Center
Thu 12:21:09 PM 26.5994 -79.8283 165° South 246 283 11,400 -1,040 Descending Miami Center
Thu 12:21:24 PM 26.5789 -79.8208 162° South 286 329 10,700 -2,400 Descending Miami Center
Thu 12:22:09 PM 26.5244 -79.8217 181° South 263 303 9,000 -1,543 Descending Miami Center
Thu 12:23:09 PM 26.4531 -79.8386 192° South 263 303 8,000 -500 Descending Miami Center
Thu 12:24:09 PM 26.3922 -79.8556 194° South 257 296 8,000 -150 Level Miami Center
Thu 12:25:09 PM 26.3264 -79.9094 216° Southwest 263 303 7,700 -800 Descending Miami Center
Thu 12:26:09 PM 26.2794 -79.9569 222° Southwest 268 308 6,400 -756 Descending Miami Center
Thu 12:27:24 PM 26.2047 -80.0292 221° Southwest 242 278 6,000 -200 Descending Miami Center
Thu 12:28:09 PM 26.1789 -80.0586 226° Southwest 251 289 6,000  Level Miami Center
Thu 12:28:25 PM 26.1681 -80.0836 244° Southwest 220 253 6,000  Level Miami Center
Thu 12:29:09 PM 26.1589 -80.1228 255° West 220 253 6,000  Level Miami Center
Thu 12:29:26 PM 26.1500 -80.1433 244° Southwest 180 207 6,000  Level Miami Center
Thu 12:30:09 PM 26.1514 -80.1758 273° West 206 237 6,000  Level Miami Center
Thu 12:30:27 PM 26.1467 -80.1989 257° West 182 209 6,000  Level Miami Center
Thu 12:31:09 PM 26.1500 -80.2336 276° West 196 226 6,000  Level Miami Center
Thu 12:31:28 PM 26.1472 -80.2589 263° West 185 213 6,000 -300 Level Miami Center
Thu 12:32:29 PM 26.1461 -80.3144 269° West 185 213 5,600 -492 Descending Miami Center
Thu 12:33:30 PM 26.1467 -80.3725 271° West 182 209 5,000 -295 Descending Miami Center
Thu 12:34:31 PM 26.1475 -80.4281 271° West 177 204 5,000  Level Miami Center
Thu 12:35:32 PM 26.1217 -80.4619 230° Southwest 177 204 5,000  Level Miami Center
Thu 12:36:33 PM 26.0869 -80.4261 137° Southeast 192 221 5,000 -541 Level Miami Center
Thu 12:37:34 PM 26.0758 -80.3633 101° East 218 251 3,900 -1,279 Descending Miami Center
Thu 12:38:35 PM 26.0756 -80.2964 90° East 209 241 2,400 -1,279 Descending Miami Center
Thu 12:39:36 PM 26.0747 -80.2408 91° East 173 199 1,300 -893 Descending Miami Center
Thu 12:40:36 PM 26.0756 -80.2014 89° East 108 124 600 -700 Descending Miami Center
Thu 12:42:00 PM 26.0667 -80.1500 103° East  Level FlightAware Approximate
Thu 12:49:00 PM 26.0726 -80.1527 103° East  Level Estimated
Thu 12:50:00 PM 26.0667 -80.1500 103° East  Level FlightAware Approximate

Login

Don't have an account? Register now (free) for customized features, flight alerts, and more!